createdAt,value
2022-09-09T00:00:18.027Z,1.60
2022-09-09T00:00:38.202Z,1.42
2022-09-09T00:00:57.917Z,1.40
2022-09-09T00:01:22.974Z,1.55
2022-09-09T00:01:45.027Z,1.23
2022-09-09T00:02:02.892Z,1.50
2022-09-09T00:02:20.734Z,1.58
2022-09-09T00:02:37.510Z,1.48
2022-09-09T00:02:59.649Z,1.20
2022-09-09T00:03:18.265Z,1.17
2022-09-09T00:03:39.568Z,1.27
2022-09-09T00:03:58.657Z,1.27
2022-09-09T00:04:21.708Z,1.02
2022-09-09T00:04:38.740Z,1.38
2022-09-09T00:05:02.152Z,1.18
2022-09-09T00:05:23.849Z,0.95
2022-09-09T00:05:46.277Z,1.00
2022-09-09T00:06:05.683Z,1.00
2022-09-09T00:06:24.241Z,1.20
2022-09-09T00:06:45.029Z,1.45
2022-09-09T00:07:04.511Z,1.52
2022-09-09T00:07:27.337Z,1.60
2022-09-09T00:07:46.003Z,1.60
2022-09-09T00:08:04.984Z,1.35
2022-09-09T00:08:23.731Z,1.38
2022-09-09T00:08:45.989Z,1.55
2022-09-09T00:09:06.313Z,1.30
2022-09-09T00:09:25.015Z,1.27
2022-09-09T00:09:45.795Z,1.42
2022-09-09T00:10:06.169Z,1.33
2022-09-09T00:10:27.356Z,1.25
2022-09-09T00:10:45.017Z,1.48
2022-09-09T00:11:05.824Z,1.52
2022-09-09T00:11:29.348Z,1.20
2022-09-09T00:11:49.173Z,1.20
2022-09-09T00:12:11.018Z,0.93
2022-09-09T00:12:33.379Z,1.48
2022-09-09T00:12:55.610Z,1.15
2022-09-09T00:13:17.174Z,1.08
2022-09-09T00:13:36.708Z,1.30
2022-09-09T00:13:54.806Z,1.10
2022-09-09T00:14:15.603Z,1.48
2022-09-09T00:14:37.614Z,1.52
2022-09-09T00:14:55.925Z,1.27
2022-09-09T00:15:13.787Z,1.38
2022-09-09T00:15:34.840Z,1.23
2022-09-09T00:15:57.839Z,1.05
2022-09-09T00:16:17.429Z,1.10
2022-09-09T00:16:35.687Z,1.00
2022-09-09T00:16:55.266Z,1.27
2022-09-09T00:17:14.850Z,1.33
2022-09-09T00:17:34.554Z,1.50
2022-09-09T00:17:55.135Z,1.45
2022-09-09T00:18:17.063Z,1.33
2022-09-09T00:18:40.942Z,1.70
2022-09-09T00:19:01.239Z,1.70
2022-09-09T00:19:22.144Z,1.10
2022-09-09T00:19:43.741Z,1.50
2022-09-09T00:20:03.857Z,1.52
2022-09-09T00:20:24.667Z,1.25
2022-09-09T00:20:43.315Z,1.58
2022-09-09T00:21:03.858Z,1.58
2022-09-09T00:21:23.059Z,1.52
2022-09-09T00:21:44.560Z,1.58
2022-09-09T00:22:10.474Z,1.42
2022-09-09T00:22:29.335Z,1.75
2022-09-09T00:22:48.923Z,1.45
2022-09-09T00:23:07.530Z,1.20
2022-09-09T00:23:25.771Z,1.30
2022-09-09T00:23:46.576Z,1.52
2022-09-09T00:24:09.500Z,1.25
2022-09-09T00:24:28.210Z,1.00
2022-09-09T00:24:45.744Z,1.05
2022-09-09T00:25:07.051Z,1.20
2022-09-09T00:25:28.652Z,1.45
2022-09-09T00:25:52.349Z,1.27
2022-09-09T00:26:11.822Z,1.10
2022-09-09T00:26:32.719Z,1.20
2022-09-09T00:26:52.174Z,1.00
2022-09-09T00:27:13.196Z,0.80
2022-09-09T00:27:32.710Z,0.95
2022-09-09T00:27:50.217Z,1.00
2022-09-09T00:28:12.076Z,1.10
2022-09-09T00:28:32.067Z,0.98
2022-09-09T00:28:51.656Z,1.00
2022-09-09T00:29:15.680Z,1.10
2022-09-09T00:29:36.814Z,0.90
2022-09-09T00:29:55.805Z,1.10
2022-09-09T00:30:17.198Z,0.90
2022-09-09T00:30:35.553Z,1.20
2022-09-09T00:30:52.336Z,1.00
2022-09-09T00:31:12.812Z,0.80
2022-09-09T00:31:31.781Z,0.82
2022-09-09T00:31:48.427Z,0.90
2022-09-09T00:32:12.283Z,0.80
2022-09-09T00:32:30.325Z,0.75
2022-09-09T00:32:47.444Z,0.80
2022-09-09T00:33:14.045Z,0.70
2022-09-09T00:33:31.298Z,0.85
2022-09-09T00:33:49.071Z,0.93
2022-09-09T00:34:10.891Z,0.80
2022-09-09T00:34:28.981Z,0.85
2022-09-09T00:34:51.348Z,0.90
2022-09-09T00:35:16.842Z,0.85
2022-09-09T00:35:34.814Z,0.50
2022-09-09T00:35:52.915Z,0.52
2022-09-09T00:36:13.168Z,0.80
2022-09-09T00:36:33.268Z,0.95
2022-09-09T00:36:52.113Z,0.93
2022-09-09T00:37:09.715Z,0.98
2022-09-09T00:37:27.526Z,1.05
2022-09-09T00:37:44.586Z,1.00
2022-09-09T00:38:03.655Z,0.80
2022-09-09T00:38:24.338Z,0.75
2022-09-09T00:38:43.346Z,0.90
2022-09-09T00:39:01.359Z,0.77
2022-09-09T00:39:22.586Z,0.73
2022-09-09T00:39:42.723Z,0.90
2022-09-09T00:40:01.065Z,1.10
2022-09-09T00:40:23.244Z,0.70
2022-09-09T00:40:42.044Z,0.63
2022-09-09T00:41:03.684Z,0.80
2022-09-09T00:41:22.737Z,0.70
2022-09-09T00:41:50.280Z,0.65
2022-09-09T00:42:14.390Z,0.98
2022-09-09T00:42:37.417Z,1.13
2022-09-09T00:43:01.874Z,0.80
2022-09-09T00:43:24.125Z,0.70
2022-09-09T00:43:41.539Z,0.88
2022-09-09T00:44:01.506Z,0.90
2022-09-09T00:44:24.248Z,0.93
2022-09-09T00:44:46.905Z,0.90
2022-09-09T00:45:12.531Z,0.80
2022-09-09T00:45:38.098Z,1.00
2022-09-09T00:46:13.005Z,1.17
2022-09-09T00:46:46.929Z,0.60
2022-09-09T00:47:16.998Z,0.90
2022-09-09T00:47:45.905Z,0.57
2022-09-09T00:48:06.098Z,0.77
2022-09-09T00:48:27.532Z,0.80
2022-09-09T00:48:49.581Z,0.93
2022-09-09T00:49:13.297Z,0.73
2022-09-09T00:49:37.005Z,0.90
2022-09-09T00:50:02.479Z,0.90
2022-09-09T00:50:30.698Z,0.82
2022-09-09T00:50:50.489Z,0.77
2022-09-09T00:51:11.815Z,0.78
2022-09-09T00:51:32.935Z,0.82
2022-09-09T00:51:58.236Z,0.63
2022-09-09T00:52:23.718Z,0.82
2022-09-09T00:52:44.540Z,0.70
2022-09-09T00:53:06.959Z,0.85
2022-09-09T00:53:30.892Z,0.77
2022-09-09T00:53:59.211Z,0.90
2022-09-09T00:54:33.947Z,0.70
2022-09-09T00:54:55.273Z,0.40
2022-09-09T00:55:16.230Z,0.60
2022-09-09T00:55:41.363Z,0.50
2022-09-09T00:56:03.142Z,0.65
2022-09-09T00:56:22.594Z,0.65
2022-09-09T00:56:43.284Z,0.60
2022-09-09T00:57:08.500Z,0.50
2022-09-09T00:57:29.174Z,0.80
2022-09-09T00:57:47.166Z,0.90
2022-09-09T00:58:03.756Z,0.55
2022-09-09T00:58:21.261Z,0.60
2022-09-09T00:58:38.138Z,0.70
2022-09-09T00:58:59.156Z,0.70
2022-09-09T00:59:23.677Z,0.80
2022-09-09T00:59:46.852Z,0.80
2022-09-09T01:00:19.573Z,0.60
2022-09-09T01:00:39.380Z,0.60
2022-09-09T01:00:58.878Z,0.70
2022-09-09T01:01:15.545Z,0.80
2022-09-09T01:01:33.230Z,0.80
2022-09-09T01:01:49.934Z,0.50
2022-09-09T01:02:14.247Z,0.50
2022-09-09T01:02:32.630Z,0.80
2022-09-09T01:02:54.342Z,0.70
2022-09-09T01:03:22.992Z,0.47
2022-09-09T01:03:43.564Z,0.50
2022-09-09T01:04:00.623Z,0.90
2022-09-09T01:04:21.390Z,1.13
2022-09-09T01:04:38.200Z,0.85
2022-09-09T01:04:55.545Z,0.82
2022-09-09T01:05:14.657Z,0.60
2022-09-09T01:05:36.411Z,0.68
2022-09-09T01:05:57.432Z,0.80
2022-09-09T01:06:16.743Z,0.63
2022-09-09T01:06:34.970Z,0.60
2022-09-09T01:06:57.833Z,0.60
2022-09-09T01:07:17.459Z,0.57
2022-09-09T01:07:34.057Z,0.60
2022-09-09T01:07:53.953Z,0.60
2022-09-09T01:08:17.705Z,0.43
2022-09-09T01:08:41.688Z,0.70
2022-09-09T01:09:07.217Z,0.43
2022-09-09T01:09:26.980Z,0.64
2022-09-09T01:09:47.801Z,0.75
2022-09-09T01:10:08.078Z,0.63
2022-09-09T01:10:31.815Z,0.60
2022-09-09T01:10:50.706Z,0.60
2022-09-09T01:11:10.705Z,0.60
2022-09-09T01:11:33.032Z,0.50
2022-09-09T01:11:53.253Z,0.50
2022-09-09T01:12:15.072Z,0.55
2022-09-09T01:12:36.535Z,0.57
2022-09-09T01:12:53.137Z,0.68
2022-09-09T01:13:14.746Z,0.65
2022-09-09T01:13:34.674Z,0.57
2022-09-09T01:13:59.991Z,0.60
2022-09-09T01:14:24.768Z,0.50
2022-09-09T01:14:43.358Z,0.60
2022-09-09T01:15:04.324Z,0.70
2022-09-09T01:15:22.842Z,0.60
2022-09-09T01:15:42.419Z,0.40
2022-09-09T01:16:02.131Z,0.50
2022-09-09T01:16:21.087Z,0.50
2022-09-09T01:16:37.775Z,0.40
2022-09-09T01:16:55.765Z,0.38
2022-09-09T01:17:15.973Z,0.40
2022-09-09T01:17:37.684Z,0.55
2022-09-09T01:18:03.108Z,0.50
2022-09-09T01:18:23.689Z,0.70
2022-09-09T01:18:41.827Z,0.60
2022-09-09T01:18:59.318Z,0.50
2022-09-09T01:19:20.303Z,0.43
2022-09-09T01:19:41.375Z,0.68
2022-09-09T01:20:03.840Z,0.60
2022-09-09T01:20:26.402Z,0.50
2022-09-09T01:20:56.445Z,0.50
2022-09-09T01:21:17.855Z,0.57
2022-09-09T01:21:39.293Z,0.57
2022-09-09T01:21:57.929Z,0.60
2022-09-09T01:22:19.236Z,0.80
2022-09-09T01:22:38.818Z,0.47
2022-09-09T01:23:05.570Z,0.50
2022-09-09T01:23:36.258Z,0.50
2022-09-09T01:24:27.581Z,0.40
2022-09-09T01:25:09.207Z,0.60
2022-09-09T01:26:05.786Z,0.60
2022-09-09T01:26:25.647Z,0.63
2022-09-09T01:26:43.822Z,0.65
2022-09-09T01:27:09.689Z,0.50
2022-09-09T01:27:26.538Z,0.70
2022-09-09T01:27:45.093Z,0.75
2022-09-09T01:28:04.571Z,0.70
2022-09-09T01:28:23.481Z,0.60
2022-09-09T01:28:43.844Z,0.60
2022-09-09T01:29:03.506Z,0.60
2022-09-09T01:29:27.398Z,0.52
2022-09-09T01:29:44.115Z,0.43
2022-09-09T01:30:00.754Z,0.50
2022-09-09T01:30:19.200Z,0.40
2022-09-09T01:30:38.950Z,0.40
2022-09-09T01:30:57.587Z,0.65
2022-09-09T01:31:18.649Z,0.60
2022-09-09T01:31:39.493Z,0.50
2022-09-09T01:31:57.097Z,0.40
2022-09-09T01:32:32.427Z,0.40
2022-09-09T01:32:50.700Z,0.65
2022-09-09T01:33:13.703Z,0.90
2022-09-09T01:33:30.227Z,0.60
2022-09-09T01:33:47.081Z,0.40
2022-09-09T01:34:09.799Z,0.40
2022-09-09T01:34:31.975Z,0.60
2022-09-09T01:34:48.712Z,0.60
2022-09-09T01:35:09.735Z,0.45
2022-09-09T01:35:34.231Z,0.30
2022-09-09T01:35:55.374Z,0.60
2022-09-09T01:36:16.532Z,0.48
2022-09-09T01:36:43.265Z,0.40
2022-09-09T01:37:03.165Z,0.50
2022-09-09T01:37:19.731Z,0.55
2022-09-09T01:37:36.346Z,0.60
2022-09-09T01:37:52.962Z,0.60
2022-09-09T01:38:09.947Z,0.60
2022-09-09T01:38:27.671Z,0.57
2022-09-09T01:38:44.575Z,0.60
2022-09-09T01:39:01.296Z,0.40
2022-09-09T01:39:18.619Z,0.50
2022-09-09T01:39:39.267Z,0.45
2022-09-09T01:39:59.775Z,0.40
2022-09-09T01:40:16.527Z,0.40
2022-09-09T01:40:33.509Z,0.60
2022-09-09T01:40:53.024Z,0.50
2022-09-09T01:41:13.680Z,0.28
2022-09-09T01:41:54.324Z,0.40
2022-09-09T01:42:12.428Z,0.40
2022-09-09T01:42:28.933Z,0.30
2022-09-09T01:42:45.469Z,0.50
2022-09-09T01:43:02.128Z,0.52
2022-09-09T01:43:19.251Z,0.60
2022-09-09T01:43:37.245Z,0.70
2022-09-09T01:43:54.414Z,0.60
2022-09-09T01:44:11.696Z,0.60
2022-09-09T01:44:30.931Z,0.50
2022-09-09T01:44:48.569Z,0.40
2022-09-09T01:45:06.083Z,0.40
2022-09-09T01:45:23.019Z,0.50
2022-09-09T01:45:40.271Z,0.55
2022-09-09T01:45:59.695Z,0.68
2022-09-09T01:46:18.389Z,0.60
2022-09-09T01:46:35.114Z,0.38
2022-09-09T01:46:52.814Z,0.45
2022-09-09T01:47:11.568Z,0.43
2022-09-09T01:47:45.094Z,0.40
2022-09-09T01:48:31.307Z,0.40
2022-09-09T01:48:54.483Z,0.50
2022-09-09T01:49:11.068Z,0.40
2022-09-09T01:49:28.733Z,0.32
2022-09-09T01:49:46.431Z,0.40
2022-09-09T01:50:12.316Z,0.43
2022-09-09T01:50:28.827Z,0.55
2022-09-09T01:50:46.857Z,0.45
2022-09-09T01:51:04.241Z,0.40
2022-09-09T01:51:21.928Z,0.40
2022-09-09T01:51:40.376Z,0.40
2022-09-09T01:52:00.191Z,0.40
2022-09-09T01:52:24.083Z,0.38
2022-09-09T01:52:40.732Z,0.80
2022-09-09T01:53:03.430Z,0.40
2022-09-09T01:53:22.614Z,0.40
2022-09-09T01:53:40.041Z,0.43
2022-09-09T01:53:57.065Z,0.47
2022-09-09T01:54:13.730Z,0.43
2022-09-09T01:54:32.284Z,0.50
2022-09-09T01:54:52.064Z,0.47
2022-09-09T01:55:13.631Z,0.70
2022-09-09T01:55:31.643Z,0.40
2022-09-09T01:55:56.483Z,0.68
2022-09-09T01:56:22.396Z,0.90
2022-09-09T01:56:45.380Z,0.20
2022-09-09T01:57:07.332Z,0.50
2022-09-09T01:57:26.359Z,0.28
2022-09-09T01:57:45.596Z,0.20
2022-09-09T01:58:10.844Z,0.40
2022-09-09T01:58:35.964Z,0.25
2022-09-09T01:59:03.242Z,0.50
2022-09-09T01:59:25.546Z,0.30
2022-09-09T01:59:58.887Z,0.43
2022-09-09T02:00:16.287Z,0.35
2022-09-09T02:00:33.057Z,0.50
2022-09-09T02:00:56.904Z,0.32
2022-09-09T02:01:16.851Z,0.20
2022-09-09T02:01:40.587Z,0.30
2022-09-09T02:02:02.510Z,0.30
2022-09-09T02:02:20.003Z,0.30
2022-09-09T02:02:57.893Z,0.20
2022-09-09T02:03:25.813Z,0.30
2022-09-09T02:03:52.772Z,0.20
2022-09-09T02:04:21.980Z,0.20
2022-09-09T02:04:40.410Z,0.40
2022-09-09T02:05:09.769Z,0.30
2022-09-09T02:05:31.244Z,0.30
2022-09-09T02:05:51.280Z,0.20
2022-09-09T02:06:20.192Z,0.40
2022-09-09T02:06:40.276Z,0.50
2022-09-09T02:07:15.242Z,0.40
2022-09-09T02:07:36.580Z,0.28
2022-09-09T02:07:58.111Z,0.28
2022-09-09T02:08:27.510Z,0.50
2022-09-09T02:08:51.397Z,0.40
2022-09-09T02:09:09.472Z,0.30
2022-09-09T02:09:27.096Z,0.20
2022-09-09T02:09:49.588Z,0.20
2022-09-09T02:10:11.052Z,0.40
2022-09-09T02:10:31.955Z,0.40
2022-09-09T02:11:02.658Z,0.40
2022-09-09T02:11:45.861Z,0.60
2022-09-09T02:12:12.819Z,0.90
2022-09-09T02:12:36.631Z,0.30
2022-09-09T02:12:54.994Z,0.40
2022-09-09T02:13:13.433Z,0.43
2022-09-09T02:13:31.239Z,0.35
2022-09-09T02:13:48.976Z,0.30
2022-09-09T02:14:10.045Z,0.40
2022-09-09T02:14:31.690Z,0.30
2022-09-09T02:14:50.718Z,0.40
2022-09-09T02:15:13.057Z,0.50
2022-09-09T02:15:42.304Z,0.40
2022-09-09T02:16:01.734Z,0.30
2022-09-09T02:16:21.885Z,0.22
2022-09-09T02:16:41.045Z,0.20
2022-09-09T02:17:00.388Z,0.52
2022-09-09T02:17:28.266Z,0.45
2022-09-09T02:17:53.221Z,0.38
2022-09-09T02:18:11.049Z,0.30
2022-09-09T02:18:32.508Z,0.20
2022-09-09T02:18:50.840Z,0.30
2022-09-09T02:19:13.744Z,0.20
2022-09-09T02:19:45.164Z,0.32
2022-09-09T02:20:15.401Z,0.40
2022-09-09T02:20:58.841Z,0.60
2022-09-09T02:21:15.711Z,0.45
2022-09-09T02:21:35.951Z,0.25
2022-09-09T02:21:54.324Z,0.32
2022-09-09T02:22:11.102Z,0.40
2022-09-09T02:22:28.843Z,0.30
2022-09-09T02:22:46.607Z,0.20
2022-09-09T02:23:05.912Z,0.30
2022-09-09T02:23:24.532Z,0.20
2022-09-09T02:23:45.484Z,0.20
2022-09-09T02:24:05.641Z,0.30
2022-09-09T02:24:26.815Z,0.30
2022-09-09T02:24:55.863Z,0.60
2022-09-09T02:25:18.903Z,0.30
2022-09-09T02:25:36.978Z,0.30
2022-09-09T02:26:05.078Z,0.40
2022-09-09T02:26:24.283Z,0.20
2022-09-09T02:26:50.023Z,0.20
2022-09-09T02:27:09.808Z,0.30
2022-09-09T02:27:26.917Z,0.30
2022-09-09T02:27:44.821Z,0.40
2022-09-09T02:28:03.647Z,0.50
2022-09-09T02:28:22.331Z,0.50
2022-09-09T02:28:40.992Z,0.40
2022-09-09T02:28:58.575Z,0.30
2022-09-09T02:29:17.353Z,0.20
2022-09-09T02:29:35.280Z,0.30
2022-09-09T02:29:54.069Z,0.40
2022-09-09T02:30:23.445Z,0.15
2022-09-09T02:30:46.086Z,0.30
2022-09-09T02:31:03.185Z,0.22
2022-09-09T02:31:26.476Z,0.20
2022-09-09T02:31:50.673Z,0.20
2022-09-09T02:32:15.850Z,0.22
2022-09-09T02:32:33.715Z,0.13
2022-09-09T02:32:52.451Z,0.20
2022-09-09T02:33:11.518Z,0.25
2022-09-09T02:33:36.491Z,0.30
2022-09-09T02:33:56.308Z,0.50
2022-09-09T02:34:14.884Z,0.50
2022-09-09T02:34:32.779Z,0.20
2022-09-09T02:34:51.358Z,0.22
2022-09-09T02:35:09.929Z,0.20
2022-09-09T02:35:29.367Z,0.30
2022-09-09T02:35:46.135Z,0.20
2022-09-09T02:36:04.497Z,0.20
2022-09-09T02:36:23.166Z,0.20
2022-09-09T02:36:41.394Z,0.25
2022-09-09T02:36:59.621Z,0.30
2022-09-09T02:37:18.485Z,0.40
2022-09-09T02:37:39.488Z,0.32
2022-09-09T02:37:57.725Z,0.22
2022-09-09T02:38:16.625Z,0.25
2022-09-09T02:38:43.709Z,0.40
2022-09-09T02:39:03.982Z,0.30
2022-09-09T02:39:23.380Z,0.22
2022-09-09T02:39:43.138Z,0.40
2022-09-09T02:40:03.584Z,0.30
2022-09-09T02:40:21.953Z,0.20
2022-09-09T02:40:46.657Z,0.30
2022-09-09T02:41:03.280Z,0.28
2022-09-09T02:41:22.734Z,0.20
2022-09-09T02:41:41.037Z,0.20
2022-09-09T02:41:58.917Z,0.30
2022-09-09T02:42:21.619Z,0.30
2022-09-09T02:42:39.909Z,0.30
2022-09-09T02:42:57.572Z,0.40
2022-09-09T02:43:17.314Z,0.25
2022-09-09T02:43:35.533Z,0.20
2022-09-09T02:43:55.389Z,0.30
2022-09-09T02:44:12.659Z,0.32
2022-09-09T02:44:30.234Z,0.32
2022-09-09T02:44:47.921Z,0.38
2022-09-09T02:45:05.729Z,0.30
2022-09-09T02:45:26.056Z,0.20
2022-09-09T02:45:45.383Z,0.30
2022-09-09T02:46:09.331Z,0.30
2022-09-09T02:46:31.960Z,0.40
2022-09-09T02:46:57.715Z,0.28
2022-09-09T02:47:29.149Z,0.22
2022-09-09T02:47:53.161Z,0.20
2022-09-09T02:48:15.214Z,0.20
2022-09-09T02:48:37.437Z,0.20
2022-09-09T02:48:59.469Z,0.25
2022-09-09T02:49:20.987Z,0.30
2022-09-09T02:49:42.739Z,0.40
2022-09-09T02:50:03.715Z,0.20
2022-09-09T02:50:24.281Z,0.22
2022-09-09T02:50:44.794Z,0.20
2022-09-09T02:51:05.955Z,0.10
2022-09-09T02:51:25.683Z,0.20
2022-09-09T02:51:48.286Z,0.20
2022-09-09T02:52:06.754Z,0.20
2022-09-09T02:52:27.685Z,0.25
2022-09-09T02:52:49.393Z,0.30
2022-09-09T02:53:09.025Z,0.32
2022-09-09T02:53:32.341Z,0.30
2022-09-09T02:53:50.792Z,0.32
2022-09-09T02:54:13.389Z,0.30
2022-09-09T02:54:32.046Z,0.20
2022-09-09T02:54:54.051Z,0.20
2022-09-09T02:55:15.660Z,0.20
2022-09-09T02:55:38.580Z,0.20
2022-09-09T02:55:58.956Z,0.30
2022-09-09T02:56:17.219Z,0.20
2022-09-09T02:56:40.268Z,0.30
2022-09-09T02:57:02.440Z,0.25
2022-09-09T02:57:27.326Z,0.30
2022-09-09T02:57:48.452Z,0.32
2022-09-09T02:58:08.235Z,0.40
2022-09-09T02:58:25.909Z,0.30
2022-09-09T02:58:55.663Z,0.20
2022-09-09T02:59:12.696Z,0.38
2022-09-09T02:59:31.176Z,0.32
2022-09-09T02:59:48.108Z,0.30
2022-09-09T03:00:05.108Z,0.40
2022-09-09T03:00:26.376Z,0.60
2022-09-09T03:00:45.087Z,0.50
2022-09-09T03:01:03.911Z,0.17
2022-09-09T03:01:21.643Z,0.30
2022-09-09T03:01:40.951Z,0.35
2022-09-09T03:01:57.550Z,0.20
2022-09-09T03:02:15.642Z,0.20
2022-09-09T03:02:34.712Z,0.30
2022-09-09T03:02:55.516Z,0.30
2022-09-09T03:03:12.811Z,0.25
2022-09-09T03:03:30.041Z,0.20
2022-09-09T03:03:47.387Z,0.20
2022-09-09T03:04:07.132Z,0.20
2022-09-09T03:04:25.863Z,0.32
2022-09-09T03:04:44.072Z,0.38
2022-09-09T03:05:00.733Z,0.28
2022-09-09T03:05:17.321Z,0.22
2022-09-09T03:05:34.920Z,0.30
2022-09-09T03:05:51.468Z,0.30
2022-09-09T03:06:08.179Z,0.30
2022-09-09T03:06:24.695Z,0.20
2022-09-09T03:06:50.232Z,0.30
2022-09-09T03:07:10.904Z,0.28
2022-09-09T03:07:28.489Z,0.30
2022-09-09T03:07:45.694Z,0.20
2022-09-09T03:08:03.134Z,0.30
2022-09-09T03:08:19.877Z,0.22
2022-09-09T03:08:37.412Z,0.10
2022-09-09T03:08:54.126Z,0.22
2022-09-09T03:09:15.103Z,0.22
2022-09-09T03:09:33.495Z,0.30
2022-09-09T03:09:50.067Z,0.22
2022-09-09T03:10:07.735Z,0.28
2022-09-09T03:10:26.172Z,0.20
2022-09-09T03:10:44.060Z,0.28
2022-09-09T03:11:02.832Z,0.30
2022-09-09T03:11:22.478Z,0.20
2022-09-09T03:11:39.470Z,0.25
2022-09-09T03:11:57.266Z,0.30
2022-09-09T03:12:17.267Z,0.20
2022-09-09T03:12:34.539Z,0.30
2022-09-09T03:12:51.304Z,0.30
2022-09-09T03:13:08.932Z,0.30
2022-09-09T03:13:28.916Z,0.30
2022-09-09T03:13:46.429Z,0.22
2022-09-09T03:14:03.530Z,0.15
2022-09-09T03:14:25.476Z,0.20
2022-09-09T03:14:42.149Z,0.20
2022-09-09T03:14:58.852Z,0.10
2022-09-09T03:15:16.713Z,0.20
2022-09-09T03:15:34.046Z,0.30
2022-09-09T03:15:50.677Z,0.30
2022-09-09T03:16:10.491Z,0.30
2022-09-09T03:16:34.034Z,0.30
2022-09-09T03:16:51.581Z,0.30
2022-09-09T03:17:08.949Z,0.30
2022-09-09T03:17:29.703Z,0.20
2022-09-09T03:17:48.090Z,0.20
2022-09-09T03:18:05.725Z,0.20
2022-09-09T03:18:24.020Z,0.20
2022-09-09T03:18:43.622Z,0.40
2022-09-09T03:19:00.514Z,0.30
2022-09-09T03:19:19.532Z,0.20
2022-09-09T03:19:37.176Z,0.20
2022-09-09T03:19:55.398Z,0.40
2022-09-09T03:20:13.407Z,0.22
2022-09-09T03:20:30.532Z,0.28
2022-09-09T03:20:49.414Z,0.30
2022-09-09T03:21:06.404Z,0.25
2022-09-09T03:21:23.948Z,0.20
2022-09-09T03:21:40.593Z,0.20
2022-09-09T03:21:57.149Z,0.15
2022-09-09T03:22:14.241Z,0.20
2022-09-09T03:22:32.510Z,0.20
2022-09-09T03:22:50.618Z,0.20
2022-09-09T03:23:11.304Z,0.20
2022-09-09T03:23:30.380Z,0.13
2022-09-09T03:23:49.099Z,0.20
2022-09-09T03:24:07.510Z,0.20
2022-09-09T03:24:24.215Z,0.30
2022-09-09T03:24:41.733Z,0.40
2022-09-09T03:24:58.422Z,0.20
2022-09-09T03:25:14.981Z,0.20
2022-09-09T03:25:32.986Z,0.20
2022-09-09T03:25:50.134Z,0.22
2022-09-09T03:26:10.184Z,0.28
2022-09-09T03:26:33.833Z,0.30
2022-09-09T03:26:51.465Z,0.30
2022-09-09T03:27:08.092Z,0.28
2022-09-09T03:27:28.522Z,0.20
2022-09-09T03:27:45.141Z,0.20
2022-09-09T03:28:04.291Z,0.20
2022-09-09T03:28:21.581Z,0.20
2022-09-09T03:28:38.827Z,0.20
2022-09-09T03:28:56.274Z,0.20
2022-09-09T03:29:14.072Z,0.20
2022-09-09T03:29:31.554Z,0.20
2022-09-09T03:29:52.146Z,0.30
2022-09-09T03:30:13.045Z,0.20
2022-09-09T03:30:30.222Z,0.20
2022-09-09T03:30:46.943Z,0.10
2022-09-09T03:31:04.638Z,0.20
2022-09-09T03:31:26.478Z,0.20
2022-09-09T03:31:43.520Z,0.20
2022-09-09T03:32:01.152Z,0.20
2022-09-09T03:32:18.636Z,0.30
2022-09-09T03:32:35.323Z,0.25
2022-09-09T03:32:52.305Z,0.30
2022-09-09T03:33:08.930Z,0.40
2022-09-09T03:33:25.613Z,0.30
2022-09-09T03:33:43.989Z,0.30
2022-09-09T03:34:03.549Z,0.40
2022-09-09T03:34:23.105Z,0.40
2022-09-09T03:34:41.352Z,0.30
2022-09-09T03:35:01.159Z,0.30
2022-09-09T03:35:17.870Z,0.30
2022-09-09T03:35:35.365Z,0.30
2022-09-09T03:35:52.903Z,0.30
2022-09-09T03:36:11.737Z,0.30
2022-09-09T03:36:29.325Z,0.30
2022-09-09T03:36:45.895Z,0.38
2022-09-09T03:37:02.561Z,0.30
2022-09-09T03:37:19.221Z,0.30
2022-09-09T03:37:36.945Z,0.22
2022-09-09T03:37:53.763Z,0.20
2022-09-09T03:38:10.745Z,0.15
2022-09-09T03:38:29.372Z,0.20
2022-09-09T03:38:45.970Z,0.25
2022-09-09T03:39:04.838Z,0.30
2022-09-09T03:39:21.650Z,0.20
2022-09-09T03:39:38.211Z,0.20
2022-09-09T03:39:55.545Z,0.13
2022-09-09T03:40:13.390Z,0.13
2022-09-09T03:40:31.946Z,0.20
2022-09-09T03:40:52.302Z,0.20
2022-09-09T03:41:08.952Z,0.20
2022-09-09T03:41:26.089Z,0.10
2022-09-09T03:41:42.673Z,0.10
2022-09-09T03:42:00.872Z,0.20
2022-09-09T03:42:19.588Z,0.20
2022-09-09T03:42:39.393Z,0.30
2022-09-09T03:42:55.947Z,0.30
2022-09-09T03:43:12.538Z,0.30
2022-09-09T03:43:30.542Z,0.40
2022-09-09T03:43:47.803Z,0.38
2022-09-09T03:44:04.328Z,0.20
2022-09-09T03:44:25.897Z,0.20
2022-09-09T03:44:42.951Z,0.20
2022-09-09T03:45:00.332Z,0.30
2022-09-09T03:45:18.145Z,0.30
2022-09-09T03:45:34.960Z,0.25
2022-09-09T03:45:51.985Z,0.30
2022-09-09T03:46:08.596Z,0.30
2022-09-09T03:46:26.197Z,0.30
2022-09-09T03:46:43.132Z,0.30
2022-09-09T03:47:01.630Z,0.22
2022-09-09T03:47:19.245Z,0.28
2022-09-09T03:47:35.833Z,0.28
2022-09-09T03:47:55.548Z,0.20
2022-09-09T03:48:12.860Z,0.30
2022-09-09T03:48:30.582Z,0.28
2022-09-09T03:48:48.651Z,0.20
2022-09-09T03:49:05.255Z,0.20
2022-09-09T03:49:23.204Z,0.25
2022-09-09T03:49:40.335Z,0.22
2022-09-09T03:49:57.899Z,0.25
2022-09-09T03:50:14.577Z,0.30
2022-09-09T03:50:35.357Z,0.20
2022-09-09T03:50:52.687Z,0.20
2022-09-09T03:51:09.207Z,0.20
2022-09-09T03:51:26.720Z,0.20
2022-09-09T03:51:43.678Z,0.30
2022-09-09T03:52:03.237Z,0.40
2022-09-09T03:52:23.746Z,0.22
2022-09-09T03:52:43.135Z,0.20
2022-09-09T03:53:07.568Z,0.47
2022-09-09T03:53:25.651Z,0.20
2022-09-09T03:53:42.647Z,0.20
2022-09-09T03:53:59.278Z,0.30
2022-09-09T03:54:17.481Z,0.28
2022-09-09T03:54:35.031Z,0.30
2022-09-09T03:54:51.755Z,0.28
2022-09-09T03:55:09.054Z,0.20
2022-09-09T03:55:25.879Z,0.20
2022-09-09T03:55:44.623Z,0.30
2022-09-09T03:56:01.709Z,0.30
2022-09-09T03:56:22.685Z,0.30
2022-09-09T03:56:39.903Z,0.30
2022-09-09T03:56:56.766Z,0.20
2022-09-09T03:57:14.654Z,0.20
2022-09-09T03:57:31.283Z,0.20
2022-09-09T03:57:50.589Z,0.22
2022-09-09T03:58:07.246Z,0.28
2022-09-09T03:58:25.020Z,0.38
2022-09-09T03:58:42.872Z,0.20
2022-09-09T03:59:01.158Z,0.17
2022-09-09T03:59:18.732Z,0.10
2022-09-09T03:59:35.988Z,0.25
2022-09-09T03:59:52.768Z,0.32
2022-09-09T04:00:09.903Z,0.20
2022-09-09T04:00:35.102Z,0.22
2022-09-09T04:00:55.504Z,0.38
2022-09-09T04:01:18.689Z,0.40
2022-09-09T04:01:36.062Z,0.30
2022-09-09T04:01:53.019Z,0.20
2022-09-09T04:02:10.074Z,0.20
2022-09-09T04:02:26.742Z,0.20
2022-09-09T04:02:44.516Z,0.22
2022-09-09T04:03:05.126Z,0.60
2022-09-09T04:03:24.704Z,0.57
2022-09-09T04:03:45.640Z,0.25
2022-09-09T04:04:03.324Z,0.30
2022-09-09T04:04:21.147Z,0.30
2022-09-09T04:04:37.954Z,0.30
2022-09-09T04:04:54.974Z,0.20
2022-09-09T04:05:11.628Z,0.20
2022-09-09T04:05:31.492Z,0.30
2022-09-09T04:05:49.486Z,0.22
2022-09-09T04:06:08.760Z,0.28
2022-09-09T04:06:25.614Z,0.20
2022-09-09T04:06:42.135Z,0.15
2022-09-09T04:06:58.711Z,0.20
2022-09-09T04:07:16.828Z,0.30
2022-09-09T04:07:33.807Z,0.20
2022-09-09T04:07:50.299Z,0.20
2022-09-09T04:08:06.927Z,0.20
2022-09-09T04:08:25.423Z,0.35
2022-09-09T04:08:42.684Z,0.32
2022-09-09T04:09:04.228Z,0.25
2022-09-09T04:09:21.756Z,0.10
2022-09-09T04:09:39.499Z,0.20
2022-09-09T04:09:56.314Z,0.40
2022-09-09T04:10:14.260Z,0.20
2022-09-09T04:10:30.885Z,0.20
2022-09-09T04:10:48.046Z,0.20
2022-09-09T04:11:05.932Z,0.20
2022-09-09T04:11:22.698Z,0.20
2022-09-09T04:11:42.718Z,0.30
2022-09-09T04:11:59.284Z,0.35
2022-09-09T04:12:17.620Z,0.40
2022-09-09T04:12:35.670Z,0.20
2022-09-09T04:12:53.652Z,0.20
2022-09-09T04:13:12.477Z,0.20
2022-09-09T04:13:31.024Z,0.20
2022-09-09T04:13:48.800Z,0.15
2022-09-09T04:14:06.923Z,0.20
2022-09-09T04:14:23.520Z,0.20
2022-09-09T04:14:40.098Z,0.20
2022-09-09T04:14:58.384Z,0.20
2022-09-09T04:15:15.714Z,0.10
2022-09-09T04:15:34.132Z,0.13
2022-09-09T04:15:51.781Z,0.15
2022-09-09T04:16:10.457Z,0.20
2022-09-09T04:16:28.971Z,0.60
2022-09-09T04:16:45.809Z,0.50
2022-09-09T04:17:07.075Z,0.30
2022-09-09T04:17:23.617Z,0.60
2022-09-09T04:17:40.136Z,0.43
2022-09-09T04:17:56.753Z,0.30
2022-09-09T04:18:17.026Z,0.30
2022-09-09T04:18:36.618Z,0.30
2022-09-09T04:18:54.102Z,0.17
2022-09-09T04:19:13.349Z,0.25
2022-09-09T04:19:31.030Z,0.30
2022-09-09T04:19:47.609Z,0.25
2022-09-09T04:20:04.400Z,0.30
2022-09-09T04:20:21.091Z,0.22
2022-09-09T04:20:38.771Z,0.30
2022-09-09T04:20:55.924Z,0.30
2022-09-09T04:21:14.312Z,0.25
2022-09-09T04:21:31.066Z,0.30
2022-09-09T04:21:52.159Z,0.40
2022-09-09T04:22:11.063Z,0.20
2022-09-09T04:22:27.761Z,0.20
2022-09-09T04:22:44.321Z,0.20
2022-09-09T04:23:00.896Z,0.13
2022-09-09T04:23:19.597Z,0.20
2022-09-09T04:23:37.141Z,0.28
2022-09-09T04:23:54.702Z,0.30
2022-09-09T04:24:11.884Z,0.22
2022-09-09T04:24:30.030Z,0.20
2022-09-09T04:24:48.943Z,0.20
2022-09-09T04:25:07.778Z,0.25
2022-09-09T04:25:25.072Z,0.20
2022-09-09T04:25:45.615Z,0.30
2022-09-09T04:26:02.371Z,0.30
2022-09-09T04:26:20.170Z,0.25
2022-09-09T04:26:37.479Z,0.20
2022-09-09T04:26:54.025Z,0.20
2022-09-09T04:27:10.936Z,0.20